Time;durP1;ratioP1;P1;durP2;ratioP2;P2;SDS_P1;SDS_P2;PMS_P1;PMS_P2;Temp;Humidity;BMP_temperature;BMP_pressure;BME280_temperature;BME280_humidity;BME280_pressure;Samples;Min_cycle;Max_cycle;Signal;HPM_P1;HPM_P2
2023/07/18 00:00:13;;;;;;;3.75;2.20;;;;;;;;;;5154640;27;20459;-68
2023/07/18 00:02:39;;;;;;;2.30;2.10;;;;;;;;;;5154470;27;20525;-68
2023/07/18 00:05:06;;;;;;;3.72;2.17;;;;;;;;;;5151042;27;20263;-68
2023/07/18 00:07:32;;;;;;;4.38;2.28;;;;;;;;;;5154779;27;20497;-68
2023/07/18 00:09:58;;;;;;;2.78;2.55;;;;;;;;;;5156799;27;20205;-68
2023/07/18 00:12:26;;;;;;;5.10;2.83;;;;;;;;;;5157993;27;20200;-68
2023/07/18 00:14:52;;;;;;;3.80;2.55;;;;;;;;;;5156542;27;20205;-68
2023/07/18 00:17:18;;;;;;;4.07;2.03;;;;;;;;;;5154383;27;20205;-68
2023/07/18 00:19:45;;;;;;;4.50;2.72;;;;;;;;;;5154826;27;20213;-68
2023/07/18 00:22:11;;;;;;;2.35;2.17;;;;;;;;;;5157751;27;20400;-68
2023/07/18 00:24:38;;;;;;;6.47;2.50;;;;;;;;;;5157636;27;20565;-68
2023/07/18 00:27:05;;;;;;;4.78;2.78;;;;;;;;;;5154802;27;20559;-68
2023/07/18 00:29:32;;;;;;;4.55;2.28;;;;;;;;;;5154242;27;20205;-68
2023/07/18 00:31:58;;;;;;;5.38;2.67;;;;;;;;;;5156475;27;20416;-68
2023/07/18 00:34:25;;;;;;;4.40;2.78;;;;;;;;;;5157587;27;20194;-68
2023/07/18 00:36:55;;;;;;;2.90;2.67;;;;;;;;;;5156290;27;20198;-68
2023/07/18 00:39:21;;;;;;;3.30;2.50;;;;;;;;;;5154485;27;20199;-68
2023/07/18 00:41:47;;;;;;;4.53;3.17;;;;;;;;;;5154723;27;20535;-68
2023/07/18 00:44:13;;;;;;;2.72;2.47;;;;;;;;;;5157360;27;20414;-68
2023/07/18 00:46:41;;;;;;;3.70;2.72;;;;;;;;;;5158143;27;20199;-68
2023/07/18 00:49:08;;;;;;;4.95;2.63;;;;;;;;;;5157270;27;20193;-68
2023/07/18 00:51:34;;;;;;;5.47;2.78;;;;;;;;;;5157225;27;20197;-68
2023/07/18 00:54:01;;;;;;;2.97;2.78;;;;;;;;;;5154904;27;20194;-68
2023/07/18 00:56:27;;;;;;;7.45;2.60;;;;;;;;;;5153899;27;20198;-68
2023/07/18 00:58:54;;;;;;;3.45;3.13;;;;;;;;;;5154844;27;20221;-68
2023/07/18 01:01:21;;;;;;;4.72;2.80;;;;;;;;;;5157122;27;20209;-68
2023/07/18 01:03:48;;;;;;;3.17;2.97;;;;;;;;;;5148153;27;20218;-68
2023/07/18 01:06:15;;;;;;;4.57;3.22;;;;;;;;;;5157046;27;20257;-68
2023/07/18 01:08:41;;;;;;;6.70;2.85;;;;;;;;;;5157249;27;20378;-68
2023/07/18 01:11:08;;;;;;;3.40;2.67;;;;;;;;;;5153622;27;20194;-68
2023/07/18 01:13:34;;;;;;;3.22;3.00;;;;;;;;;;5153130;27;20194;-68
2023/07/18 01:16:00;;;;;;;5.10;2.75;;;;;;;;;;5155430;27;20198;-68
2023/07/18 01:18:27;;;;;;;3.45;2.40;;;;;;;;;;5155739;27;20373;-68
2023/07/18 01:20:55;;;;;;;5.35;2.80;;;;;;;;;;5155862;27;20220;-68
2023/07/18 01:23:24;;;;;;;4.45;3.03;;;;;;;;;;5153039;27;20214;-68
2023/07/18 01:25:50;;;;;;;5.07;2.75;;;;;;;;;;5153580;27;20199;-68
2023/07/18 01:28:16;;;;;;;3.22;2.92;;;;;;;;;;5156688;27;20217;-68
2023/07/18 01:31:07;;;;;;;2.55;2.35;;;;;;;;;;5156598;27;20384;-68
2023/07/18 01:33:34;;;;;;;5.18;2.80;;;;;;;;;;5147156;27;20194;-68
2023/07/18 01:36:01;;;;;;;5.18;2.65;;;;;;;;;;5154837;27;20224;-68
2023/07/18 01:38:30;;;;;;;2.80;2.60;;;;;;;;;;5156551;27;20208;-68
2023/07/18 01:40:56;;;;;;;3.47;2.90;;;;;;;;;;5155022;27;20197;-68
2023/07/18 01:43:23;;;;;;;4.28;3.05;;;;;;;;;;5152577;27;20462;-68
2023/07/18 01:45:49;;;;;;;3.17;2.70;;;;;;;;;;5152905;27;20199;-68
2023/07/18 01:48:16;;;;;;;3.95;3.28;;;;;;;;;;5156176;27;20212;-68
2023/07/18 01:50:42;;;;;;;4.82;2.95;;;;;;;;;;5156426;27;20201;-68
2023/07/18 01:53:10;;;;;;;3.78;3.10;;;;;;;;;;5152956;27;20197;-68
2023/07/18 01:55:38;;;;;;;4.55;3.20;;;;;;;;;;5152403;27;20198;-68
2023/07/18 01:58:05;;;;;;;4.57;2.97;;;;;;;;;;5154975;27;20273;-68
2023/07/18 02:00:32;;;;;;;3.42;3.05;;;;;;;;;;5155806;27;20202;-68
2023/07/18 02:02:59;;;;;;;4.10;3.35;;;;;;;;;;5154363;27;20520;-68
2023/07/18 02:05:25;;;;;;;4.22;3.40;;;;;;;;;;5149328;27;20509;-68
2023/07/18 02:07:52;;;;;;;3.17;2.90;;;;;;;;;;5155829;27;20202;-68
2023/07/18 02:10:20;;;;;;;3.47;3.00;;;;;;;;;;5155884;27;20197;-68
2023/07/18 02:12:48;;;;;;;3.90;3.00;;;;;;;;;;5155665;27;20256;-68
2023/07/18 02:15:14;;;;;;;3.90;2.70;;;;;;;;;;5143791;27;20197;-68
2023/07/18 02:17:42;;;;;;;2.75;2.55;;;;;;;;;;5152383;27;20222;-68
2023/07/18 02:20:11;;;;;;;5.68;2.85;;;;;;;;;;5155009;27;20550;-68
2023/07/18 02:22:38;;;;;;;5.25;3.10;;;;;;;;;;5155638;27;20205;-68
2023/07/18 02:25:05;;;;;;;3.20;2.78;;;;;;;;;;5153277;27;20202;-68
2023/07/18 02:27:31;;;;;;;2.83;2.63;;;;;;;;;;5151862;27;20218;-68
2023/07/18 02:30:00;;;;;;;3.15;2.53;;;;;;;;;;5152690;27;20198;-68
2023/07/18 02:32:27;;;;;;;3.53;2.78;;;;;;;;;;5155556;27;20242;-68
2023/07/18 02:34:53;;;;;;;3.55;2.55;;;;;;;;;;5154787;27;20362;-68
2023/07/18 02:37:19;;;;;;;2.78;2.58;;;;;;;;;;5151997;27;20205;-68
2023/07/18 02:39:46;;;;;;;6.25;2.55;;;;;;;;;;5151849;27;20198;-68
2023/07/18 02:42:12;;;;;;;3.03;2.83;;;;;;;;;;5154599;27;20230;-68
2023/07/18 02:44:38;;;;;;;3.20;2.88;;;;;;;;;;5155036;27;20205;-68
2023/07/18 02:47:06;;;;;;;3.08;2.75;;;;;;;;;;5153305;27;20482;-68
2023/07/18 02:49:32;;;;;;;2.72;2.42;;;;;;;;;;5151726;27;20198;-68
2023/07/18 02:51:59;;;;;;;3.55;2.80;;;;;;;;;;5153128;27;20198;-68
2023/07/18 02:54:25;;;;;;;4.50;2.47;;;;;;;;;;5154887;27;20197;-68
2023/07/18 02:56:52;;;;;;;2.92;2.40;;;;;;;;;;5146284;27;20310;-68
2023/07/18 02:59:20;;;;;;;2.40;2.30;;;;;;;;;;5151172;27;20198;-68
2023/07/18 03:01:47;;;;;;;2.95;2.75;;;;;;;;;;5151554;27;20202;-68
2023/07/18 03:04:15;;;;;;;2.80;2.70;;;;;;;;;;5154410;27;20460;-68
2023/07/18 03:06:41;;;;;;;4.10;3.00;;;;;;;;;;5155249;27;20258;-68
2023/07/18 03:09:08;;;;;;;6.95;3.05;;;;;;;;;;5152598;27;20197;-68
2023/07/18 03:11:34;;;;;;;3.05;2.85;;;;;;;;;;5151525;27;20198;-68
2023/07/18 03:14:00;;;;;;;3.75;3.35;;;;;;;;;;5152594;27;20407;-68
2023/07/18 03:16:27;;;;;;;3.60;3.05;;;;;;;;;;5155091;27;20197;-68
2023/07/18 03:18:54;;;;;;;5.18;3.17;;;;;;;;;;5155057;27;20200;-68
2023/07/18 03:21:21;;;;;;;3.72;2.90;;;;;;;;;;5151431;27;20219;-68
2023/07/18 03:23:48;;;;;;;3.33;3.03;;;;;;;;;;5151098;27;20226;-68
2023/07/18 03:26:14;;;;;;;5.32;3.25;;;;;;;;;;5154672;27;20199;-68
2023/07/18 03:28:41;;;;;;;3.88;2.60;;;;;;;;;;5154762;27;20218;-68
2023/07/18 03:31:07;;;;;;;3.13;2.88;;;;;;;;;;5152780;27;20434;-68
2023/07/18 03:33:33;;;;;;;5.35;3.25;;;;;;;;;;5151181;27;20200;-68
2023/07/18 03:36:00;;;;;;;6.32;3.05;;;;;;;;;;5152088;27;20265;-68
2023/07/18 03:38:27;;;;;;;5.22;3.25;;;;;;;;;;5154787;27;20206;-68
2023/07/18 03:40:54;;;;;;;6.20;3.90;;;;;;;;;;5156832;27;20404;-68
2023/07/18 03:43:20;;;;;;;5.78;3.35;;;;;;;;;;5154927;27;20532;-68
2023/07/18 03:45:46;;;;;;;3.92;2.85;;;;;;;;;;5155281;27;20210;-68
2023/07/18 03:48:12;;;;;;;11.38;3.95;;;;;;;;;;5158057;27;20206;-68
2023/07/18 03:50:40;;;;;;;4.38;3.72;;;;;;;;;;5158728;27;20531;-68
2023/07/18 03:53:06;;;;;;;6.25;3.45;;;;;;;;;;5156588;27;20198;-68
2023/07/18 03:55:34;;;;;;;6.00;3.42;;;;;;;;;;5155372;27;20498;-68
2023/07/18 03:58:00;;;;;;;3.30;2.97;;;;;;;;;;5155798;27;20203;-68
2023/07/18 04:00:26;;;;;;;4.90;3.33;;;;;;;;;;5158298;27;20209;-68
2023/07/18 04:02:53;;;;;;;4.25;3.47;;;;;;;;;;5158333;27;20391;-68
2023/07/18 04:05:20;;;;;;;4.13;3.33;;;;;;;;;;5154382;27;20232;-68
2023/07/18 04:07:47;;;;;;;4.35;3.17;;;;;;;;;;5154709;27;20213;-68
2023/07/18 04:10:14;;;;;;;3.05;2.80;;;;;;;;;;5157435;27;20502;-68
2023/07/18 04:12:42;;;;;;;3.55;2.67;;;;;;;;;;5158350;27;20202;-68
2023/07/18 04:15:08;;;;;;;6.40;3.25;;;;;;;;;;5156146;27;20385;-71
2023/07/18 04:17:35;;;;;;;3.90;3.00;;;;;;;;;;5154625;27;20397;-71
2023/07/18 04:20:02;;;;;;;7.53;3.20;;;;;;;;;;5154421;27;20202;-71
2023/07/18 04:22:29;;;;;;;5.30;3.00;;;;;;;;;;5154642;27;20207;-71
2023/07/18 04:24:56;;;;;;;3.20;2.90;;;;;;;;;;5154257;27;20579;-71
2023/07/18 04:27:23;;;;;;;5.55;2.90;;;;;;;;;;5146146;27;20222;-71
2023/07/18 04:29:50;;;;;;;3.55;3.30;;;;;;;;;;5154361;27;20194;-71
2023/07/18 04:32:18;;;;;;;5.85;3.35;;;;;;;;;;5157024;27;20212;-71
2023/07/18 04:34:44;;;;;;;4.05;3.38;;;;;;;;;;5157605;27;20189;-71
2023/07/18 04:37:10;;;;;;;3.40;3.10;;;;;;;;;;5155791;27;20205;-71
2023/07/18 04:39:37;;;;;;;4.97;3.00;;;;;;;;;;5154477;27;20407;-71
2023/07/18 04:42:03;;;;;;;7.18;3.05;;;;;;;;;;5155211;27;20195;-71
2023/07/18 04:44:30;;;;;;;4.65;2.90;;;;;;;;;;5157347;27;20214;-71
2023/07/18 04:46:58;;;;;;;5.05;3.88;;;;;;;;;;5157572;27;20497;-71
2023/07/18 04:49:24;;;;;;;4.72;3.60;;;;;;;;;;5145692;27;20209;-71
2023/07/18 04:51:51;;;;;;;5.57;3.53;;;;;;;;;;5153842;27;20195;-71
2023/07/18 04:54:17;;;;;;;4.07;3.28;;;;;;;;;;5156518;27;20194;-71
2023/07/18 04:56:43;;;;;;;4.03;3.60;;;;;;;;;;5157453;27;20200;-71
2023/07/18 04:59:10;;;;;;;4.20;3.90;;;;;;;;;;5155385;27;20205;-71
2023/07/18 05:01:36;;;;;;;6.18;4.10;;;;;;;;;;5153653;27;20242;-71
2023/07/18 05:04:04;;;;;;;4.82;3.75;;;;;;;;;;5153815;27;20394;-71
2023/07/18 05:06:30;;;;;;;5.60;4.00;;;;;;;;;;5157364;27;20257;-71
2023/07/18 05:08:57;;;;;;;8.07;4.10;;;;;;;;;;5157400;27;20214;-71
2023/07/18 05:11:23;;;;;;;6.28;4.20;;;;;;;;;;5153386;27;20194;-71
2023/07/18 05:13:49;;;;;;;6.10;4.15;;;;;;;;;;5153370;27;20200;-71
2023/07/18 05:16:16;;;;;;;7.93;4.60;;;;;;;;;;5155726;27;20269;-71
2023/07/18 05:18:42;;;;;;;7.50;4.57;;;;;;;;;;5156910;27;20202;-71
2023/07/18 05:21:09;;;;;;;5.45;4.20;;;;;;;;;;5155459;27;20194;-71
2023/07/18 05:23:36;;;;;;;7.45;4.60;;;;;;;;;;5153029;27;20262;-71
2023/07/18 05:26:03;;;;;;;5.35;4.25;;;;;;;;;;5153317;27;20261;-71
2023/07/18 05:28:30;;;;;;;8.73;4.57;;;;;;;;;;5156683;27;20225;-72
2023/07/18 05:30:56;;;;;;;8.77;3.78;;;;;;;;;;5156456;27;20200;-71
2023/07/18 05:33:22;;;;;;;6.93;4.00;;;;;;;;;;5153025;27;20202;-71
2023/07/18 05:35:49;;;;;;;7.72;3.72;;;;;;;;;;5153032;27;20367;-71
2023/07/18 05:38:16;;;;;;;4.82;3.83;;;;;;;;;;5155178;27;20205;-71
2023/07/18 05:40:43;;;;;;;5.53;4.20;;;;;;;;;;5156416;27;20194;-71
2023/07/18 05:43:09;;;;;;;6.35;4.10;;;;;;;;;;5154947;27;20194;-71
2023/07/18 05:45:35;;;;;;;8.15;3.97;;;;;;;;;;5152563;27;20286;-71
2023/07/18 05:48:02;;;;;;;8.32;4.15;;;;;;;;;;5152675;27;20199;-71
2023/07/18 05:50:29;;;;;;;11.85;3.97;;;;;;;;;;5156469;27;20223;-71
2023/07/18 05:52:55;;;;;;;12.25;4.47;;;;;;;;;;5156198;27;20202;-71
2023/07/18 05:55:23;;;;;;;8.02;4.70;;;;;;;;;;5153422;27;20209;-60
2023/07/18 05:57:49;;;;;;;9.00;4.40;;;;;;;;;;5153715;27;20454;-60
2023/07/18 06:00:16;;;;;;;5.20;4.25;;;;;;;;;;5155567;27;20206;-60
2023/07/18 06:02:42;;;;;;;6.50;4.13;;;;;;;;;;5156558;27;20200;-60
2023/07/18 06:05:09;;;;;;;5.60;3.95;;;;;;;;;;5155677;27;20417;-60
2023/07/18 06:07:36;;;;;;;5.25;4.53;;;;;;;;;;5147646;27;20670;-58
2023/07/18 06:10:03;;;;;;;6.68;4.40;;;;;;;;;;5136454;27;20250;-59
2023/07/18 06:12:31;;;;;;;7.15;4.40;;;;;;;;;;5151463;27;20572;-58
2023/07/18 06:14:57;;;;;;;5.35;4.18;;;;;;;;;;5143923;27;20203;-59
2023/07/18 06:17:24;;;;;;;10.15;4.13;;;;;;;;;;5151177;27;20462;-58
2023/07/18 06:19:50;;;;;;;8.45;4.47;;;;;;;;;;5151594;27;20233;-57
2023/07/18 06:22:18;;;;;;;7.25;4.40;;;;;;;;;;5149660;27;20488;-59
2023/07/18 06:24:45;;;;;;;6.20;4.28;;;;;;;;;;5146501;27;20379;-59
2023/07/18 06:27:11;;;;;;;6.28;3.72;;;;;;;;;;5138008;27;20222;-59
2023/07/18 06:29:39;;;;;;;8.98;4.20;;;;;;;;;;5139052;27;20230;-57
2023/07/18 06:32:05;;;;;;;3.85;3.38;;;;;;;;;;5137869;27;20436;-59
2023/07/18 06:34:33;;;;;;;7.05;4.22;;;;;;;;;;5143080;27;20202;-59
2023/07/18 06:37:02;;;;;;;10.15;4.60;;;;;;;;;;5139790;27;20251;-59
2023/07/18 06:39:29;;;;;;;8.02;4.20;;;;;;;;;;5140189;27;20232;-58
2023/07/18 06:41:55;;;;;;;6.45;4.70;;;;;;;;;;5140331;27;20206;-58
2023/07/18 06:44:21;;;;;;;10.20;4.50;;;;;;;;;;5143436;27;20226;-59
2023/07/18 06:46:49;;;;;;;9.32;4.30;;;;;;;;;;5144313;27;20223;-60
2023/07/18 06:49:18;;;;;;;6.55;4.07;;;;;;;;;;5140964;27;20206;-59
2023/07/18 06:51:44;;;;;;;11.48;4.28;;;;;;;;;;5141009;27;20198;-59
2023/07/18 06:54:11;;;;;;;8.63;4.32;;;;;;;;;;5137835;27;20281;-59
2023/07/18 06:56:39;;;;;;;6.60;4.53;;;;;;;;;;5138040;27;20490;-60
2023/07/18 06:59:06;;;;;;;6.75;3.95;;;;;;;;;;5142612;27;20237;-59
2023/07/18 07:01:33;;;;;;;11.60;4.32;;;;;;;;;;5140763;27;20451;-58
2023/07/18 07:04:01;;;;;;;6.85;3.30;;;;;;;;;;5145250;27;20210;-59
2023/07/18 07:06:27;;;;;;;7.97;4.10;;;;;;;;;;5137236;27;20222;-59
2023/07/18 07:08:53;;;;;;;5.28;3.30;;;;;;;;;;5145061;27;20213;-58
2023/07/18 07:11:20;;;;;;;11.25;3.38;;;;;;;;;;5141467;27;20529;-58
2023/07/18 07:13:46;;;;;;;6.70;3.55;;;;;;;;;;5138719;27;20206;-58
2023/07/18 07:16:13;;;;;;;7.45;3.30;;;;;;;;;;5151397;27;20198;-59
2023/07/18 07:18:39;;;;;;;6.47;3.67;;;;;;;;;;5142553;27;20202;-59
2023/07/18 07:21:07;;;;;;;7.88;3.58;;;;;;;;;;5151199;27;20214;-57
2023/07/18 07:23:33;;;;;;;4.13;3.10;;;;;;;;;;5143041;27;20232;-59
2023/07/18 07:26:00;;;;;;;5.57;3.17;;;;;;;;;;5148199;27;20221;-58
2023/07/18 07:28:26;;;;;;;3.38;3.10;;;;;;;;;;5142723;27;20305;-59
2023/07/18 07:30:52;;;;;;;6.65;2.75;;;;;;;;;;5141535;27;20213;-58
2023/07/18 07:33:19;;;;;;;10.95;2.90;;;;;;;;;;5149809;27;20229;-58
2023/07/18 07:35:46;;;;;;;7.20;2.53;;;;;;;;;;5142607;27;20272;-59
2023/07/18 07:38:14;;;;;;;4.95;3.00;;;;;;;;;;5141190;27;20206;-59
2023/07/18 07:40:41;;;;;;;5.30;2.75;;;;;;;;;;5142118;27;20206;-59
2023/07/18 07:43:07;;;;;;;6.18;2.80;;;;;;;;;;5143859;27;20403;-59
2023/07/18 07:45:33;;;;;;;5.10;3.25;;;;;;;;;;5144098;27;20222;-56
2023/07/18 07:48:00;;;;;;;3.33;3.00;;;;;;;;;;5147778;27;20206;-57
2023/07/18 07:50:26;;;;;;;6.20;3.30;;;;;;;;;;5149298;27;20520;-59
2023/07/18 07:52:52;;;;;;;6.35;2.92;;;;;;;;;;5148921;27;20212;-59
2023/07/18 07:55:20;;;;;;;5.70;2.58;;;;;;;;;;5140921;27;20211;-59
2023/07/18 07:57:46;;;;;;;4.70;2.80;;;;;;;;;;5145291;27;20206;-58
2023/07/18 08:00:13;;;;;;;2.97;2.67;;;;;;;;;;5146170;27;20217;-58
2023/07/18 08:02:40;;;;;;;3.63;3.00;;;;;;;;;;5143674;27;20206;-57
2023/07/18 08:05:07;;;;;;;4.80;2.25;;;;;;;;;;5140877;27;20498;-62
2023/07/18 08:07:33;;;;;;;3.88;2.63;;;;;;;;;;5141687;27;20548;-58
2023/07/18 08:09:59;;;;;;;10.70;2.90;;;;;;;;;;5143139;27;20217;-59
2023/07/18 08:12:27;;;;;;;8.52;2.78;;;;;;;;;;5141971;27;20540;-59
2023/07/18 08:14:54;;;;;;;5.88;2.53;;;;;;;;;;5143412;27;20250;-58
2023/07/18 08:17:20;;;;;;;6.32;2.72;;;;;;;;;;5143951;27;20213;-58
2023/07/18 08:19:46;;;;;;;5.20;2.67;;;;;;;;;;5152078;27;20450;-59
2023/07/18 08:22:14;;;;;;;5.38;2.25;;;;;;;;;;5151944;27;20205;-57
2023/07/18 08:24:40;;;;;;;3.65;2.20;;;;;;;;;;5148358;27;20213;-59
2023/07/18 08:27:06;;;;;;;6.03;2.60;;;;;;;;;;5141970;27;20533;-56
2023/07/18 08:29:35;;;;;;;3.80;2.42;;;;;;;;;;5147731;27;20214;-57
2023/07/18 08:32:01;;;;;;;5.93;2.40;;;;;;;;;;5146365;27;20258;-57
2023/07/18 08:34:27;;;;;;;6.45;2.45;;;;;;;;;;5144935;27;20214;-58
2023/07/18 08:36:54;;;;;;;3.10;2.15;;;;;;;;;;5148393;27;20405;-59
2023/07/18 08:39:20;;;;;;;4.47;1.70;;;;;;;;;;5140000;27;20373;-59
2023/07/18 08:41:47;;;;;;;5.63;2.00;;;;;;;;;;5139284;27;20215;-58
2023/07/18 08:44:15;;;;;;;2.22;2.00;;;;;;;;;;5140310;27;20448;-59
2023/07/18 08:46:45;;;;;;;3.67;1.88;;;;;;;;;;5147488;27;20229;-59
2023/07/18 08:49:13;;;;;;;2.10;1.92;;;;;;;;;;5140956;27;20210;-58
2023/07/18 08:51:40;;;;;;;20.98;3.75;;;;;;;;;;5143615;27;20205;-58
2023/07/18 08:54:06;;;;;;;5.55;1.95;;;;;;;;;;5151805;27;20466;-59
2023/07/18 08:56:33;;;;;;;5.28;2.35;;;;;;;;;;5142602;27;20237;-59
2023/07/18 08:59:00;;;;;;;3.35;1.58;;;;;;;;;;5140036;27;20209;-60
2023/07/18 09:01:26;;;;;;;2.63;1.60;;;;;;;;;;5140535;27;20421;-59
2023/07/18 09:03:55;;;;;;;4.57;1.70;;;;;;;;;;5139616;27;20206;-58
2023/07/18 09:06:23;;;;;;;3.10;1.85;;;;;;;;;;5143741;27;20226;-58
2023/07/18 09:08:49;;;;;;;3.40;1.80;;;;;;;;;;5146276;27;20192;-59
2023/07/18 09:11:18;;;;;;;2.17;1.77;;;;;;;;;;5141914;27;20210;-56
2023/07/18 09:13:45;;;;;;;3.15;1.58;;;;;;;;;;5146068;27;20205;-57
2023/07/18 09:16:12;;;;;;;11.40;1.85;;;;;;;;;;5142207;27;20206;-58
2023/07/18 09:18:38;;;;;;;2.60;1.83;;;;;;;;;;5134228;27;20205;-60
2023/07/18 09:21:09;;;;;;;7.60;1.88;;;;;;;;;;5146170;27;20416;-59
2023/07/18 09:23:39;;;;;;;3.30;1.23;;;;;;;;;;5139178;27;20205;-57
2023/07/18 09:26:06;;;;;;;1.75;1.60;;;;;;;;;;5139908;27;20222;-59
2023/07/18 09:28:33;;;;;;;4.93;2.10;;;;;;;;;;5136553;27;20244;-58
2023/07/18 09:30:59;;;;;;;2.08;1.83;;;;;;;;;;5133828;27;20540;-59
2023/07/18 09:33:25;;;;;;;4.43;1.65;;;;;;;;;;5130272;27;20216;-58
2023/07/18 09:35:52;;;;;;;3.70;1.90;;;;;;;;;;5133293;27;20216;-59
2023/07/18 09:38:20;;;;;;;4.72;1.63;;;;;;;;;;5128615;27;20284;-58
2023/07/18 09:40:47;;;;;;;1.63;1.52;;;;;;;;;;5124211;27;20207;-59
2023/07/18 09:43:13;;;;;;;5.00;1.80;;;;;;;;;;5135327;27;20206;-60
2023/07/18 09:45:40;;;;;;;6.10;1.88;;;;;;;;;;5124995;27;20593;-59
2023/07/18 09:48:07;;;;;;;6.00;1.90;;;;;;;;;;5134508;27;20228;-59
2023/07/18 09:50:34;;;;;;;7.60;2.10;;;;;;;;;;5136477;27;20210;-59
2023/07/18 09:53:02;;;;;;;3.83;2.05;;;;;;;;;;5123687;27;20273;-58
2023/07/18 09:55:31;;;;;;;5.35;1.65;;;;;;;;;;5137948;27;20209;-59
2023/07/18 09:58:00;;;;;;;3.50;1.65;;;;;;;;;;5134055;27;20232;-59
2023/07/18 10:00:27;;;;;;;2.22;2.10;;;;;;;;;;5138531;27;20237;-59
2023/07/18 10:02:54;;;;;;;5.15;1.92;;;;;;;;;;5133780;27;20319;-60
2023/07/18 10:05:20;;;;;;;1.90;1.60;;;;;;;;;;5130855;27;20220;-58
2023/07/18 10:07:47;;;;;;;3.65;2.00;;;;;;;;;;5141202;27;20227;-59
2023/07/18 10:10:14;;;;;;;2.03;1.92;;;;;;;;;;5131838;27;20225;-59
2023/07/18 10:12:58;;;;;;;2.00;1.90;;;;;;;;;;5131032;27;20206;-59
2023/07/18 10:15:26;;;;;;;3.60;2.50;;;;;;;;;;5131966;27;20210;-59
2023/07/18 10:17:52;;;;;;;7.93;2.88;;;;;;;;;;5136274;27;20206;-58
2023/07/18 10:20:19;;;;;;;3.38;1.70;;;;;;;;;;5137962;27;20210;-59
2023/07/18 10:22:47;;;;;;;2.22;2.03;;;;;;;;;;5126918;27;20501;-58
2023/07/18 10:25:13;;;;;;;3.28;2.20;;;;;;;;;;5136383;27;20572;-59
2023/07/18 10:27:40;;;;;;;16.33;5.70;;;;;;;;;;5133893;27;20232;-59
2023/07/18 10:30:09;;;;;;;6.35;3.25;;;;;;;;;;5134585;27;20209;-59
2023/07/18 10:32:37;;;;;;;6.45;2.70;;;;;;;;;;5134315;27;20210;-58
2023/07/18 10:35:06;;;;;;;3.25;2.78;;;;;;;;;;5133388;27;20210;-58
2023/07/18 10:37:33;;;;;;;4.63;2.58;;;;;;;;;;5138460;27;20285;-58
2023/07/18 10:40:04;;;;;;;4.47;2.40;;;;;;;;;;5132758;27;20228;-58
2023/07/18 10:42:32;;;;;;;3.05;2.65;;;;;;;;;;5128045;27;20241;-59
2023/07/18 10:44:59;;;;;;;3.40;2.53;;;;;;;;;;5126075;27;20520;-59
2023/07/18 10:47:28;;;;;;;3.67;2.42;;;;;;;;;;5137555;27;20229;-59
2023/07/18 10:49:54;;;;;;;3.58;3.10;;;;;;;;;;5134740;27;20211;-60
2023/07/18 10:52:21;;;;;;;4.10;2.47;;;;;;;;;;5126670;27;20214;-59
2023/07/18 10:54:52;;;;;;;3.63;2.33;;;;;;;;;;5130615;27;20304;-60
2023/07/18 10:57:23;;;;;;;8.20;2.53;;;;;;;;;;5138007;27;20205;-60
2023/07/18 10:59:51;;;;;;;2.67;2.35;;;;;;;;;;5134255;27;20211;-60
2023/07/18 11:02:17;;;;;;;5.57;3.13;;;;;;;;;;5134858;28;20215;-59
2023/07/18 11:04:45;;;;;;;5.82;2.90;;;;;;;;;;5126002;27;20273;-60
2023/07/18 11:07:11;;;;;;;5.93;2.60;;;;;;;;;;5127928;27;20506;-59
2023/07/18 11:09:38;;;;;;;4.78;2.58;;;;;;;;;;5135642;27;20277;-59
2023/07/18 11:12:04;;;;;;;4.30;2.97;;;;;;;;;;5139839;28;20212;-57
2023/07/18 11:14:37;;;;;;;5.47;2.65;;;;;;;;;;5133669;27;20243;-60
2023/07/18 11:17:09;;;;;;;6.75;2.80;;;;;;;;;;5137597;27;20505;-59
2023/07/18 11:19:35;;;;;;;4.75;2.50;;;;;;;;;;5131142;27;20513;-59
2023/07/18 11:22:03;;;;;;;4.07;2.38;;;;;;;;;;5139162;27;20405;-58
2023/07/18 11:24:29;;;;;;;6.75;2.97;;;;;;;;;;5126577;27;20218;-60
2023/07/18 11:27:10;;;;;;;3.30;2.58;;;;;;;;;;5129243;28;20400;-59
2023/07/18 11:29:36;;;;;;;6.10;2.65;;;;;;;;;;5135053;27;20210;-59
2023/07/18 11:32:03;;;;;;;3.40;2.40;;;;;;;;;;5132754;27;20205;-59
2023/07/18 11:34:30;;;;;;;2.88;2.45;;;;;;;;;;5131819;27;20209;-59
2023/07/18 11:36:56;;;;;;;2.83;2.60;;;;;;;;;;5134230;28;20206;-59
2023/07/18 11:39:24;;;;;;;4.15;2.53;;;;;;;;;;5134502;27;20217;-60
2023/07/18 11:41:52;;;;;;;4.38;2.42;;;;;;;;;;5130951;27;20470;-59
2023/07/18 11:44:24;;;;;;;3.97;2.95;;;;;;;;;;5131150;28;20210;-59
2023/07/18 11:46:52;;;;;;;2.88;2.67;;;;;;;;;;5135732;27;20225;-59
2023/07/18 11:49:32;;;;;;;2.72;2.50;;;;;;;;;;5131427;27;20210;-59
2023/07/18 11:51:58;;;;;;;4.88;2.88;;;;;;;;;;5129090;28;20217;-59
2023/07/18 11:54:28;;;;;;;5.55;2.70;;;;;;;;;;5128088;28;20217;-59
2023/07/18 11:56:54;;;;;;;2.38;2.28;;;;;;;;;;5138183;27;20210;-59
2023/07/18 11:59:21;;;;;;;2.90;2.53;;;;;;;;;;5131712;27;20217;-59
2023/07/18 12:01:47;;;;;;;8.15;2.53;;;;;;;;;;5137217;27;20612;-59
2023/07/18 12:04:14;;;;;;;3.17;2.63;;;;;;;;;;5143321;27;20213;-59
2023/07/18 12:06:41;;;;;;;3.20;2.90;;;;;;;;;;5137181;27;20279;-58
2023/07/18 12:09:07;;;;;;;4.70;2.88;;;;;;;;;;5136664;27;20206;-59
2023/07/18 12:11:35;;;;;;;3.30;2.80;;;;;;;;;;5143083;27;20400;-59
2023/07/18 12:14:04;;;;;;;7.45;3.10;;;;;;;;;;5142516;27;20205;-60
2023/07/18 12:16:31;;;;;;;4.25;2.90;;;;;;;;;;5135790;27;20525;-57
2023/07/18 12:18:57;;;;;;;2.90;2.67;;;;;;;;;;5140830;27;20206;-58
2023/07/18 12:21:23;;;;;;;3.75;2.70;;;;;;;;;;5137524;27;20406;-59
2023/07/18 12:23:49;;;;;;;4.20;2.70;;;;;;;;;;5131046;27;20214;-58
2023/07/18 12:26:16;;;;;;;5.15;2.80;;;;;;;;;;5127924;27;20253;-58
2023/07/18 12:28:45;;;;;;;3.85;2.70;;;;;;;;;;5142953;27;20320;-58
2023/07/18 12:31:11;;;;;;;5.15;3.22;;;;;;;;;;5136735;27;20384;-59
2023/07/18 12:33:38;;;;;;;4.10;2.88;;;;;;;;;;5130245;27;20210;-59
2023/07/18 12:36:04;;;;;;;5.32;2.95;;;;;;;;;;5141551;27;20205;-58
2023/07/18 12:38:31;;;;;;;5.38;2.92;;;;;;;;;;5143772;27;20536;-59
2023/07/18 12:40:57;;;;;;;3.00;2.70;;;;;;;;;;5130309;27;20212;-59
2023/07/18 12:43:23;;;;;;;4.68;2.83;;;;;;;;;;5141267;27;20237;-58
2023/07/18 12:45:51;;;;;;;4.50;2.88;;;;;;;;;;5122845;28;20206;-59
2023/07/18 12:48:17;;;;;;;4.03;2.75;;;;;;;;;;5135525;27;20230;-59
2023/07/18 12:50:44;;;;;;;6.63;2.60;;;;;;;;;;5135041;27;20410;-59
2023/07/18 12:53:10;;;;;;;4.10;2.85;;;;;;;;;;5136998;27;20212;-59
2023/07/18 12:55:36;;;;;;;5.13;2.83;;;;;;;;;;5126395;27;20529;-58
2023/07/18 12:58:03;;;;;;;4.05;2.67;;;;;;;;;;5139966;27;20206;-59
2023/07/18 13:00:29;;;;;;;5.60;3.20;;;;;;;;;;5125300;27;20215;-59
2023/07/18 13:02:57;;;;;;;5.07;3.30;;;;;;;;;;5132841;27;20210;-58
2023/07/18 13:05:23;;;;;;;4.28;2.75;;;;;;;;;;5138943;27;20301;-58
2023/07/18 13:07:50;;;;;;;3.25;2.60;;;;;;;;;;5131032;27;20241;-59
2023/07/18 13:10:16;;;;;;;3.22;2.60;;;;;;;;;;5141659;27;20210;-58
2023/07/18 13:12:42;;;;;;;3.22;2.25;;;;;;;;;;5135390;27;20229;-58
2023/07/18 13:15:09;;;;;;;5.57;2.97;;;;;;;;;;5144426;27;20208;-58
2023/07/18 13:17:35;;;;;;;3.13;2.67;;;;;;;;;;5153459;27;20734;-59
2023/07/18 13:20:03;;;;;;;7.38;3.15;;;;;;;;;;5153622;27;20201;-59
2023/07/18 13:22:29;;;;;;;8.07;3.00;;;;;;;;;;5153630;27;20202;-59
2023/07/18 13:24:55;;;;;;;3.80;3.00;;;;;;;;;;5157012;27;20370;-58
2023/07/18 13:27:22;;;;;;;5.03;2.70;;;;;;;;;;5156891;27;20236;-59
2023/07/18 13:29:48;;;;;;;6.68;3.30;;;;;;;;;;5154081;27;20205;-58
2023/07/18 13:32:14;;;;;;;4.93;2.85;;;;;;;;;;5153654;27;20193;-59
2023/07/18 13:34:41;;;;;;;4.72;2.97;;;;;;;;;;5155100;27;20220;-59
2023/07/18 13:37:08;;;;;;;3.67;2.70;;;;;;;;;;5157123;27;20425;-59
2023/07/18 13:39:35;;;;;;;6.95;2.63;;;;;;;;;;5155921;27;20204;-58
2023/07/18 13:42:01;;;;;;;3.58;2.95;;;;;;;;;;5153453;27;20194;-59
2023/07/18 13:44:27;;;;;;;3.78;2.70;;;;;;;;;;5152980;27;20506;-59
2023/07/18 13:46:54;;;;;;;3.30;2.38;;;;;;;;;;5144252;27;20214;-58
2023/07/18 13:49:20;;;;;;;3.33;2.83;;;;;;;;;;5153196;27;20474;-59
2023/07/18 13:51:47;;;;;;;8.45;3.10;;;;;;;;;;5155374;27;20220;-59
2023/07/18 13:54:14;;;;;;;5.22;2.85;;;;;;;;;;5156306;27;20497;-59
2023/07/18 13:56:41;;;;;;;4.88;2.90;;;;;;;;;;5154623;27;20200;-59
2023/07/18 13:59:07;;;;;;;8.95;3.00;;;;;;;;;;5153256;27;20205;-59
2023/07/18 14:01:33;;;;;;;6.05;3.35;;;;;;;;;;5153178;27;20206;-59
2023/07/18 14:03:59;;;;;;;5.20;2.97;;;;;;;;;;5156283;27;20519;-58
2023/07/18 14:06:26;;;;;;;3.08;2.85;;;;;;;;;;5156297;27;20205;-58
2023/07/18 14:08:53;;;;;;;3.00;2.80;;;;;;;;;;5152805;27;20201;-59
2023/07/18 14:11:20;;;;;;;6.93;3.13;;;;;;;;;;5152615;27;20201;-59
2023/07/18 14:13:46;;;;;;;3.90;3.03;;;;;;;;;;5154386;27;20209;-59
2023/07/18 14:16:13;;;;;;;4.38;2.67;;;;;;;;;;5156204;27;20238;-58
2023/07/18 14:18:39;;;;;;;3.53;2.88;;;;;;;;;;5154728;27;20197;-58
2023/07/18 14:21:07;;;;;;;12.15;3.67;;;;;;;;;;5152692;27;20261;-58
2023/07/18 14:23:33;;;;;;;4.63;2.50;;;;;;;;;;5152030;27;20301;-59
2023/07/18 14:25:59;;;;;;;4.15;3.15;;;;;;;;;;5155590;27;20193;-59
2023/07/18 14:28:27;;;;;;;6.75;2.88;;;;;;;;;;5155589;27;20583;-59
2023/07/18 14:30:53;;;;;;;4.60;2.85;;;;;;;;;;5152542;27;20280;-59
2023/07/18 14:33:20;;;;;;;4.03;2.85;;;;;;;;;;5152210;27;20481;-59
2023/07/18 14:35:46;;;;;;;7.68;3.28;;;;;;;;;;5154350;27;20205;-59
2023/07/18 14:38:12;;;;;;;5.13;3.22;;;;;;;;;;5155729;27;20189;-59
2023/07/18 14:40:39;;;;;;;3.40;3.10;;;;;;;;;;5154670;27;20197;-59